• Join FlightAware (Why Join?)
  • Login
  • US Flag 
08:27PM EST


 

Airport Tracker/Info


-or-


 

Live Flight TrackerFlight Track Log ✈ N531QS ✈ 20-Jul-2013 ✈ KAPA - KSFO

Flight Track Log - Related Links

Times and Time Zones

All times are in EDT time to prevent confusion due to time zone crossing. See the N531QS flight status page for this flight to view local times or setup timezone preferences in your user account.

Time Position Orientation Groundspeed Altitude Reporting Facility
EDT Latitude Longitude Course Direction KTS MPH feet Rate Location/Type
04:51PM 39.6167 -104.8833 258° West 231 266 8,200  Level Denver TRACON
04:52PM 39.6000 -104.9833 258° West 258 297 11,000 2,400 Climbing Denver TRACON
04:53PM 39.6236 -105.0481 295° West 291 335 12,400 1,860 Climbing Denver Center
04:54PM 39.6558 -105.1683 289° West 351 404 14,300 2,400 Climbing Denver Center
04:55PM 39.6936 -105.3003 290° West 387 445 17,400 2,820 Climbing Denver Center
04:56PM 39.7286 -105.4461 287° West 396 456 20,200 2,220 Climbing Denver Center
04:57PM 39.7147 -105.5603 261° West 413 475 22,000 1,800 Climbing Denver Center
04:58PM 39.6875 -105.7603 260° West 433 498 23,900 1,800 Climbing Denver Center
04:59PM 39.6739 -105.8953 263° West 421 484 25,800 2,040 Climbing Denver Center
05:00PM 39.6531 -106.0892 262° West 451 519 28,300 2,460 Climbing Denver Center
05:01PM 39.6333 -106.2553 261° West 457 526 31,000 2,580 Climbing Denver Center
05:02PM 39.5978 -106.4083 253° West 443 510 33,700 2,400 Climbing Denver Center
05:03PM 39.5514 -106.5472 247° West 443 510 36,000 1,080 Climbing Denver Center
05:04PM 39.4983 -106.7083 247° West 437 503 36,000  Level Denver Center
05:05PM 39.4525 -106.8478 247° West 439 505 36,000  Level Denver Center
05:06PM 39.4175 -106.9919 253° West 437 503 36,000  Level Denver Center
05:07PM 39.3919 -107.1386 257° West 436 502 36,000 180 Level Denver Center
05:08PM 39.3533 -107.3314 256° West 435 501 36,400 540 Climbing Denver Center
05:09PM 39.3256 -107.4772 256° West 436 502 37,200 960 Climbing Denver Center
05:10PM 39.2936 -107.6431 256° West 426 490 38,400 1,260 Climbing Denver Center
05:11PM 39.2642 -107.7878 255° West 431 496 39,900 720 Climbing Denver Center
05:12PM 39.2353 -107.9311 255° West 431 496 40,000  Climbing Denver Center
05:13PM 39.2025 -108.0981 256° West 431 496 40,000  Level Denver Center
05:14PM 39.1739 -108.2419 256° West 431 496 40,000  Level Denver Center
05:15PM 39.1369 -108.4142 255° West 449 517 40,000  Level Denver Center
05:16PM 39.1092 -108.5625 256° West 454 522 40,000  Level Denver Center
05:17PM 39.0714 -108.7319 254° West 439 505 40,000  Level Denver Center
05:18PM 39.0464 -108.8789 258° West 436 502 40,000  Level Denver Center
05:19PM 39.0247 -109.0258 259° West 436 502 40,000  Level Denver Center
05:20PM 38.9989 -109.1983 259° West 437 503 40,000  Level Denver Center
05:21PM 38.9772 -109.3428 259° West 431 496 40,000  Level Denver Center
05:22PM 38.9517 -109.5156 259° West 439 505 40,000  Level Denver Center
05:23PM 38.9289 -109.6631 259° West 438 504 40,000  Level Denver Center
05:25PM 38.9008 -109.8342 258° West 438 504 40,000  Level Denver Center
05:26PM 38.8794 -109.9839 260° West 440 506 40,000  Level Salt Lake Center
05:27PM 38.8556 -110.1319 258° West 442 509 40,000  Level Salt Lake Center
05:28PM 38.8292 -110.3058 259° West 444 511 40,000  Level Salt Lake Center
05:29PM 38.8053 -110.4542 258° West 444 511 40,000  Level Salt Lake Center
05:30PM 38.7775 -110.6247 258° West 438 504 40,000  Level Salt Lake Center
05:31PM 38.7531 -110.7722 258° West 441 507 40,000  Level Salt Lake Center
05:32PM 38.7264 -110.9358 258° West 445 512 40,000  Level Salt Lake Center
05:33PM 38.7017 -111.0892 258° West 443 510 40,000  Level Salt Lake Center
05:34PM 38.6750 -111.2433 258° West 444 511 40,000  Level Salt Lake Center
05:35PM 38.6492 -111.3969 258° West 444 511 40,000  Level Salt Lake Center
05:36PM 38.6183 -111.5833 258° West 446 513 40,000  Level Salt Lake Center
05:37PM 38.5906 -111.7372 257° West 446 513 40,000  Level Salt Lake Center
05:38PM 38.5642 -111.8908 258° West 445 512 40,000  Level Salt Lake Center
05:39PM 38.5369 -112.0447 257° West 446 513 40,000  Level Salt Lake Center
05:40PM 38.5103 -112.1994 258° West 447 514 40,000  Level Salt Lake Center
05:41PM 38.4819 -112.3531 257° West 446 513 40,000  Level Salt Lake Center
05:42PM 38.4492 -112.5364 257° West 445 512 40,000  Level Salt Lake Center
05:43PM 38.4217 -112.6894 257° West 445 512 40,000  Level Salt Lake Center
05:44PM 38.3933 -112.8394 256° West 440 506 40,000  Level Salt Lake Center
05:45PM 38.3653 -112.9925 257° West 444 511 40,000  Level Salt Lake Center
05:46PM 38.3506 -113.1461 263° West 440 506 40,000  Level Salt Lake Center
05:47PM 38.3375 -113.3319 265° West 442 509 40,000  Level Salt Lake Center
05:48PM 38.3250 -113.4889 264° West 446 513 40,000  Level Salt Lake Center
05:49PM 38.3125 -113.6444 264° West 445 512 40,000  Level Salt Lake Center
05:50PM 38.3011 -113.8006 265° West 444 511 40,000  Level Salt Lake Center
05:51PM 38.2881 -113.9567 264° West 447 514 40,000  Level Salt Lake Center
05:52PM 38.2750 -114.1125 264° West 445 512 40,000  Level Salt Lake Center
05:53PM 38.2592 -114.3022 264° West 449 517 40,000  Level Salt Lake Center
05:54PM 38.2453 -114.4592 264° West 449 517 40,000  Level Salt Lake Center
05:55PM 38.2378 -114.6142 267° West 444 511 40,000  Level Salt Lake Center
05:56PM 38.2283 -114.7697 266° West 445 512 40,000  Level Salt Lake Center
05:58PM 38.2183 -114.9275 265° West 449 517 40,000  Level Salt Lake Center
05:59PM 38.2078 -115.0833 265° West 444 511 40,000  Level Salt Lake Center
06:00PM 38.1956 -115.2736 265° West 450 518 40,000  Level Salt Lake Center
06:01PM 38.1850 -115.4236 265° West 448 516 40,000  Level Salt Lake Center
06:02PM 38.1744 -115.5794 265° West 444 511 40,000  Level Salt Lake Center
06:03PM 38.1631 -115.7383 265° West 450 518 40,000  Level Salt Lake Center
06:04PM 38.1517 -115.8972 265° West 452 520 40,000  Level Salt Lake Center
06:05PM 38.1406 -116.0561 265° West 452 520 40,000  Level Salt Lake Center
06:06PM 38.1253 -116.2447 264° West 448 516 40,000  Level Salt Lake Center
06:07PM 38.1136 -116.4039 265° West 452 520 40,000  Level Salt Lake Center
06:08PM 38.1019 -116.5614 265° West 450 518 40,000  Level Salt Lake Center
06:09PM 38.0925 -116.6864 265° West 446 513 40,000  Level Oakland Center
06:10PM 38.0778 -116.8439 263° West 448 516 40,000  Level Oakland Center
06:11PM 38.0625 -117.0050 263° West 455 524 40,000  Level Oakland Center
06:12PM 38.0464 -117.1694 263° West 457 526 40,000  Level Oakland Center
06:13PM 38.0306 -117.3369 263° West 464 534 40,000  Level Oakland Center
06:14PM 38.0161 -117.4989 264° West 460 529 40,000  Level Oakland Center
06:15PM 38.0006 -117.6603 263° West 460 529 40,000  Level Oakland Center
06:16PM 37.9836 -117.8208 262° West 459 528 40,000  Level Oakland Center
06:17PM 37.9653 -118.0144 263° West 461 531 40,000  Level Oakland Center
06:18PM 37.9483 -118.1736 262° West 457 526 40,000  Level Oakland Center
06:19PM 37.9308 -118.3344 262° West 460 529 40,000  Level Oakland Center
06:20PM 37.9150 -118.4956 263° West 460 529 40,000  Level Oakland Center
06:21PM 37.8978 -118.6567 262° West 460 529 40,000  Level Oakland Center
06:22PM 37.8789 -118.8175 262° West 463 533 40,000  Level Oakland Center
06:23PM 37.8622 -118.9850 263° West 460 529 40,000  Level Oakland Center
06:24PM 37.8444 -119.1458 262° West 462 532 40,000  Level Oakland Center
06:25PM 37.8267 -119.3053 262° West 459 528 40,000 -780 Level Oakland Center
06:26PM 37.8078 -119.4658 262° West 461 531 38,500 -1,680 Descending Oakland Center
06:27PM 37.7911 -119.6147 262° West 433 498 36,600 -1,680 Descending Oakland Center
06:28PM 37.7736 -119.7617 261° West 423 487 35,200 -1,860 Descending Oakland Center
06:29PM 37.7558 -119.9150 262° West 437 503 32,900 -2,220 Descending Oakland Center
06:30PM 37.7364 -120.0803 262° West 471 542 30,800 -2,100 Descending Oakland Center
06:31PM 37.7164 -120.2481 261° West 481 554 28,700 -2,160 Descending Oakland Center
06:32PM 37.6961 -120.4167 261° West 483 556 26,500 -2,160 Descending Oakland Center
06:33PM 37.6750 -120.5794 261° West 471 542 24,400 -2,220 Descending Oakland Center
06:34PM 37.6500 -120.7500 260° West 450 518 22,200 -2,220 Descending Northern Cal TRACON
06:35PM 37.6333 -120.9000 262° West 446 513 20,100 -1,980 Descending Northern Cal TRACON
06:36PM 37.6167 -121.0667 263° West 437 503 18,300 -1,920 Descending Northern Cal TRACON
06:37PM 37.6000 -121.2000 261° West 419 482 16,300 -1,860 Descending Northern Cal TRACON
06:38PM 37.5833 -121.3500 262° West 385 443 14,600 -1,680 Descending Northern Cal TRACON
06:39PM 37.5667 -121.4667 260° West 336 387 13,000 -1,500 Descending Northern Cal TRACON
06:40PM 37.5500 -121.5667 258° West 307 353 11,600 -1,260 Descending Northern Cal TRACON
06:41PM 37.5333 -121.6833 260° West 307 353 10,500 -1,260 Descending Northern Cal TRACON
06:42PM 37.5167 -121.7833 258° West 299 344 9,100 -1,260 Descending Northern Cal TRACON
06:43PM 37.4833 -121.8667 243° Southwest 294 338 8,000 -1,020 Descending Northern Cal TRACON
06:44PM 37.4833 -121.9667 270° West 295 339 7,100 -1,320 Descending Northern Cal TRACON
06:45PM 37.5167 -122.0500 297° West 278 320 5,400 -1,740 Descending Northern Cal TRACON
06:46PM 37.5500 -122.1333 297° West 259 298 3,700 -1,500 Descending Northern Cal TRACON
06:47PM 37.5667 -122.2167 284° West 228 262 2,500 -1,080 Descending Northern Cal TRACON
06:48PM 37.5833 -122.2833 288° West 182 209 1,600 -900 Descending Northern Cal TRACON
06:49PM 37.6000 -122.3333 293° West 130 150 700 -600 Descending Northern Cal TRACON
06:50PM 37.6189 -122.3769 299° West 152 175 300 -300 Descending Oakland Center
06:52PM 37.6167 -122.3667 322° Northwest  Level FlightAware Approximate